Get our newsletter!
Check out the volcano tours offered by Volcano-Adventures!
Volcanoes & Earthquakes - new app for Android
Guaranteed tours:
16-23 Sep 2017: Pearl of the Aegean - Santorini - Santorini Island, Greece
20-24 Sep 2017: Sinabung Volcano Special - Sumatra (Indonesia)
20-25 Sep 2017: Sinabung Volcano Special - Sumatra (Indonesia)
23-28 Sep 2017: Aegean's Hidden Gem: Isle of Milos - Milos Island (Greece)
1-16 Oct 2017: From Krakatau to Bali - Java (Indonesia)
7-14 Oct 2017: Pearl of the Aegean - Santorini - Santorini Island, Greece
13-27 Oct 2017: Volcanoes of Italy - the Grand Tour - Southern Italy
16-19 Oct 2017: Indonesia Specials - Java-Komodo-Bali (Indonesia)
14-27 Nov 2017: Expedition Papua - Papua New Guinea
18 Nov - 1 Dec 2017: Desert, salt and volcanoes - Danakil desert (Ethiopia)
: spaces available / : guaranteed / : few spaces left / : booked out
Random pictures
Sabancaya volcano
stratovolcano 5967 m / 19,577 ft
Peru, -15.78°S / -71.85°W
Current status: erupting (4 out of 5)
Sabancaya webcams / live data
Sabancaya volcano books
Sabancaya volcano eruptions:
2016, 2015, 2014, 2003, 2000, 1998, 1997, 1990-95, 1988, 1986, 1784, 1750, <1595(?)
Typical eruption style:
explosive and effusive
Last earthquakes nearby
Latest satellite images
 

Sabancaya volcano news & activity updates:

Sabancaya volcano Volcanic Ash Advisory: UNABLE TO DETECT OBS VA DTG: 03/1905Z

Tuesday Apr 04, 2017 04:00 AM |

Volcanic Ash Advisory Center Buenos Aires (VAAC) issued the following report:

FVAG01 at 03:58 UTC, 04/04/17 from SABM
VA ADVISORY
DTG: 20170403/2100Z
VAAC: BUENOS AIRES
VOLCANO: SABANCAYA 354006
PSN: S1547 W07150
AREA: PERU
SUMMIT ELEV: 19576 FT [5967 M]
ADVISORY NR: 2017/354
INFO SOURCE: GOES-13. GFS WINDS. VOLCANO WEB
CAMERA.
AVIATION COLOR ANGE
ERUPTION DETAILS: UNABLE TO DETECT
OBS VA DTG: 03/1905Z
OBS VA CLD: VA NOT IDENTIFIABLE FROM SATELLITE
DATA
WINDS FL180 235/05KT - FL240 355/05KT - FL300
025/05KT
?MQVA CLD +6HR: 04/0100Z
FCST VA CLD +12HR: 04/0700Z
FCST VA CLD +18HR: 04/1300Z
RMK: T+0 CONFIDENCE LOW. VA NOT SEEN ROM
SATELLITE DATA DUE TO WX CLOUD COVER. SUMMIT IS
HINDERED BY WX CLOUDS AND RAIN ON WEBCAM.
SEISMOGRAM NOT AVAILABLE. ...SMN
NXT ADVISORY: WILL BE ISSUED BY 20170404/0300Z=

WSCN07 CWAO 032107
CZQX SIGMET B8 VALID 032105/040105 CWUL-
CZQX GANDER DOMESTIC FIR SEV TURB OBS WTN N4852 W05628 - N5000 W05458
- N4919
W05148 - N4620 W05534 - N4731 W05927 - N4852 W05628 SFC/FL040 QS NC=

WSCN27 CWAO 032107
CZQX SIGMET B8 VALID 032105/040105 CWUL-
CZQX GANDER DOMESTIC FIR SEV TURB OBS WTN /N4852 W05628/45 SE CYDF -
/N5000
W05458/60 N CYQX - /N4919 W05148/120 N CYYT - /N4620 W05534/30 SE
LFVP - /N4731
W05927/15 S CDA5 - /N4852 W05628/45 SE CYDF SFC/FL040 QS NC
RMK GFACN34=

SAIR31 OIII 032100
METAR OIAA 032100Z 32008KT CAVOK 21/08 Q1017=
METAR OIAG 032100Z NIL=
METAR OIAH 032100Z 00000KT CAVOK 16/02 Q1017=
METAR OIAI 032100Z NIL=
METAR OIAM 032100Z 34004KT CAVOK 19/10 Q1016=
METAR OIAW 032051Z 32006KT CAVOK 20/07 Q1016=
METAR OIBA 032100Z NIL=
METAR OIBB 032052Z 33019KT CAVOK 23/10 Q1015 A2998=
//END PART 02//

Previous news
Monday, Apr 03, 2017
Volcanic Ash Advisory Center Buenos Aires (VAAC) issued the following report: ... [more]
Satellite image of Sabancaya volcano on  3 Apr 2017
Monday, Apr 03, 2017
Volcanic Ash Advisory Center Buenos Aires (VAAC) issued the following report: ... [more]
Sunday, Apr 02, 2017
Volcanic Ash Advisory Center Buenos Aires (VAAC) issued the following report: ... [more]
Friday, Mar 31, 2017
Volcanic Ash Advisory Center Buenos Aires (VAAC) issued the following report: ... [more]
Thursday, Mar 30, 2017
Volcanic Ash Advisory Center Buenos Aires (VAAC) issued the following report: ... [more]

More on VolcanoDiscovery:

Copyrights: VolcanoDiscovery and other sources as noted.
Use of material: Text and images on this webpage are copyrighted. Further reproduction and use without authorization is not consented. If you need licensing rights for photographs, for example for publications and commercial use, please contact us.
Home | Travel | Destinations | Volcanoes | Photos | Earthquakes | About | Glossary | News | Contact | Imprint || Français | Deutsch
Follow us: